createdAt,value
2022-10-05T00:00:16.199Z,5.43
2022-10-05T00:02:43.040Z,3.13
2022-10-05T00:05:16.601Z,3.35
2022-10-05T00:07:43.138Z,4.90
2022-10-05T00:10:11.717Z,3.15
2022-10-05T00:12:38.173Z,2.92
2022-10-05T00:15:10.172Z,4.55
2022-10-05T00:17:36.698Z,3.80
2022-10-05T00:20:14.153Z,3.25
2022-10-05T00:22:40.722Z,3.00
2022-10-05T00:25:12.036Z,3.47
2022-10-05T00:27:38.996Z,2.33
2022-10-05T00:30:14.466Z,2.90
2022-10-05T00:32:40.963Z,2.63
2022-10-05T00:35:07.765Z,2.90
2022-10-05T00:37:34.260Z,4.38
2022-10-05T00:40:00.906Z,3.90
2022-10-05T00:42:45.982Z,4.75
2022-10-05T00:45:24.317Z,2.25
2022-10-05T00:48:02.947Z,3.17
2022-10-05T00:50:29.405Z,2.47
2022-10-05T00:53:14.585Z,3.50
2022-10-05T00:55:52.194Z,3.72
2022-10-05T00:58:51.396Z,3.90
2022-10-05T01:01:22.075Z,3.70
2022-10-05T01:03:51.370Z,3.42
2022-10-05T01:06:22.634Z,3.33
2022-10-05T01:08:49.134Z,4.93
2022-10-05T01:11:36.154Z,4.22
2022-10-05T01:14:08.420Z,4.45
2022-10-05T01:16:53.557Z,4.53
2022-10-05T01:19:38.823Z,4.97
2022-10-05T01:22:25.677Z,4.68
2022-10-05T01:24:52.126Z,4.93
2022-10-05T01:27:36.700Z,4.30
2022-10-05T01:30:03.112Z,4.75
2022-10-05T01:32:35.828Z,4.45
2022-10-05T01:35:08.816Z,6.13
2022-10-05T01:37:35.249Z,4.85
2022-10-05T01:40:11.056Z,4.90
2022-10-05T01:42:43.375Z,6.15
2022-10-05T01:45:21.512Z,5.65
2022-10-05T01:47:50.178Z,5.72
2022-10-05T01:50:39.766Z,6.95
2022-10-05T01:53:22.107Z,5.28
2022-10-05T01:55:52.030Z,5.07
2022-10-05T01:58:21.537Z,5.68
2022-10-05T02:01:04.299Z,6.03
2022-10-05T02:03:35.548Z,6.22
2022-10-05T02:06:06.190Z,6.40
2022-10-05T02:08:47.206Z,6.85
2022-10-05T02:11:15.018Z,6.78
2022-10-05T02:13:46.014Z,6.22
2022-10-05T02:16:21.641Z,6.47
2022-10-05T02:18:52.869Z,6.90
2022-10-05T02:21:19.657Z,8.15
2022-10-05T02:23:46.423Z,8.10
2022-10-05T02:26:13.457Z,8.88
2022-10-05T02:28:43.119Z,8.15
2022-10-05T02:31:11.300Z,8.70
2022-10-05T02:33:38.366Z,8.00
2022-10-05T02:36:07.829Z,8.68
2022-10-05T02:38:34.330Z,9.85
2022-10-05T02:41:19.362Z,7.75
2022-10-05T02:43:45.850Z,8.65
2022-10-05T02:46:19.721Z,8.20
2022-10-05T02:49:01.606Z,9.02
2022-10-05T02:51:28.022Z,9.23
2022-10-05T02:54:00.545Z,10.93
2022-10-05T02:56:34.216Z,10.70
2022-10-05T02:59:15.828Z,7.65
2022-10-05T03:01:52.875Z,11.02
2022-10-05T03:04:37.713Z,7.47
2022-10-05T03:07:10.061Z,8.90
2022-10-05T03:09:39.641Z,10.00
2022-10-05T03:12:06.050Z,8.30
2022-10-05T03:14:47.837Z,7.47
2022-10-05T03:17:22.398Z,7.53
2022-10-05T03:20:07.640Z,6.35
2022-10-05T03:22:51.054Z,9.63
2022-10-05T03:25:36.425Z,7.97
2022-10-05T03:28:11.977Z,8.07
2022-10-05T03:30:44.046Z,7.50
2022-10-05T03:33:16.312Z,7.95
2022-10-05T03:35:53.308Z,9.07
2022-10-05T03:38:22.882Z,10.95
2022-10-05T03:40:49.359Z,16.08
2022-10-05T03:43:21.718Z,7.57
2022-10-05T03:45:54.280Z,5.85
2022-10-05T03:48:27.089Z,6.32
2022-10-05T03:50:53.532Z,5.70
2022-10-05T03:53:21.950Z,4.38
2022-10-05T03:55:48.436Z,5.57
2022-10-05T03:58:21.356Z,5.43
2022-10-05T04:00:50.398Z,4.63
2022-10-05T04:03:22.603Z,5.05
2022-10-05T04:05:50.845Z,8.63
2022-10-05T04:08:47.892Z,5.90
2022-10-05T04:11:18.447Z,6.07
2022-10-05T04:13:49.062Z,16.88
2022-10-05T04:16:22.268Z,11.02
2022-10-05T04:18:57.973Z,11.45
2022-10-05T04:21:26.286Z,7.63
2022-10-05T04:23:55.496Z,14.82
2022-10-05T04:26:35.113Z,15.95
2022-10-05T04:29:21.844Z,9.02
2022-10-05T04:32:07.205Z,14.50
2022-10-05T04:34:36.686Z,15.02
2022-10-05T04:37:07.672Z,18.17
2022-10-05T04:39:54.381Z,16.15
2022-10-05T04:42:26.077Z,22.73
2022-10-05T04:45:21.577Z,25.13
2022-10-05T04:48:06.668Z,22.17
2022-10-05T04:50:35.916Z,12.45
2022-10-05T04:53:21.387Z,12.10
2022-10-05T04:55:51.448Z,19.23
2022-10-05T04:58:24.165Z,14.75
2022-10-05T05:00:50.647Z,11.07
2022-10-05T05:03:37.824Z,13.02
2022-10-05T05:06:22.721Z,8.43
2022-10-05T05:09:08.036Z,10.98
2022-10-05T05:11:53.204Z,8.73
2022-10-05T05:14:28.100Z,4.03
2022-10-05T05:17:14.864Z,13.95
2022-10-05T05:19:45.447Z,18.00
2022-10-05T05:22:11.959Z,12.13
2022-10-05T05:24:44.267Z,12.88
2022-10-05T05:27:18.406Z,14.85
2022-10-05T05:29:52.072Z,3.90
2022-10-05T05:32:24.597Z,9.38
2022-10-05T05:34:59.850Z,4.82
2022-10-05T05:37:35.740Z,9.73
2022-10-05T05:40:11.086Z,18.50
2022-10-05T05:42:42.776Z,20.98
2022-10-05T05:45:20.049Z,18.20
2022-10-05T05:47:52.294Z,16.98
2022-10-05T05:50:24.945Z,14.65
2022-10-05T05:52:58.824Z,14.15
2022-10-05T05:55:45.960Z,15.68
2022-10-05T05:58:32.707Z,17.88
2022-10-05T06:01:20.309Z,7.60
2022-10-05T06:04:07.573Z,8.32
2022-10-05T06:06:37.395Z,4.88
2022-10-05T06:09:06.659Z,10.43
2022-10-05T06:11:37.684Z,6.15
2022-10-05T06:14:27.490Z,4.63
2022-10-05T06:16:57.128Z,9.40
2022-10-05T06:19:24.159Z,5.78
2022-10-05T06:21:56.442Z,8.75
2022-10-05T06:24:28.608Z,4.15
2022-10-05T06:27:04.132Z,9.68
2022-10-05T06:29:39.463Z,13.32
2022-10-05T06:32:10.703Z,8.18
2022-10-05T06:34:40.267Z,6.82
2022-10-05T06:37:10.908Z,8.10
2022-10-05T06:39:43.582Z,12.05
2022-10-05T06:42:13.732Z,5.20
2022-10-05T06:44:45.927Z,10.55
2022-10-05T06:47:38.828Z,6.95
2022-10-05T06:50:05.344Z,4.40
2022-10-05T06:52:50.551Z,12.00
2022-10-05T06:55:20.244Z,8.52
2022-10-05T06:57:55.788Z,7.07
2022-10-05T07:00:22.281Z,10.63
2022-10-05T07:02:51.769Z,8.68
2022-10-05T07:05:21.184Z,5.65
2022-10-05T07:07:53.760Z,13.05
2022-10-05T07:10:36.664Z,11.52
2022-10-05T07:13:10.047Z,10.43
2022-10-05T07:15:39.255Z,8.15
2022-10-05T07:18:24.522Z,2.10
2022-10-05T07:20:57.049Z,2.45
2022-10-05T07:23:40.999Z,6.00
2022-10-05T07:26:11.807Z,3.05
2022-10-05T07:28:41.140Z,6.25
2022-10-05T07:31:25.769Z,0.70
2022-10-05T07:33:52.286Z,1.60
2022-10-05T07:36:41.775Z,1.13
2022-10-05T07:39:16.305Z,1.25
2022-10-05T07:41:47.704Z,1.00
2022-10-05T07:44:36.475Z,0.60
2022-10-05T07:47:06.212Z,2.08
2022-10-05T07:49:41.873Z,1.38
2022-10-05T07:52:12.584Z,6.85
2022-10-05T07:54:42.055Z,1.17
2022-10-05T07:57:14.596Z,3.85
2022-10-05T08:00:00.452Z,2.05
2022-10-05T08:02:29.515Z,2.22
2022-10-05T08:05:00.327Z,3.50
2022-10-05T08:07:28.352Z,1.75
2022-10-05T08:10:24.527Z,2.25
2022-10-05T08:13:02.476Z,1.65
2022-10-05T08:15:31.897Z,2.20
2022-10-05T08:18:02.592Z,2.97
2022-10-05T08:20:32.067Z,3.60
2022-10-05T08:23:11.417Z,2.55
2022-10-05T08:25:46.020Z,1.60
2022-10-05T08:28:15.757Z,1.85
2022-10-05T08:30:56.910Z,2.72
2022-10-05T08:33:24.404Z,5.85
2022-10-05T08:35:55.859Z,1.35
2022-10-05T08:38:31.226Z,1.27
2022-10-05T08:41:13.032Z,4.25
2022-10-05T08:43:55.197Z,3.95
2022-10-05T08:46:37.061Z,2.90
2022-10-05T08:49:04.661Z,3.35
2022-10-05T08:51:34.134Z,1.98
2022-10-05T08:54:30.249Z,1.13
2022-10-05T08:56:56.671Z,1.50
2022-10-05T08:59:41.545Z,2.75
2022-10-05T09:02:17.075Z,1.60
2022-10-05T09:05:02.171Z,2.33
2022-10-05T09:07:37.736Z,1.45
2022-10-05T09:10:22.747Z,0.60
2022-10-05T09:12:55.237Z,1.48
2022-10-05T09:15:33.923Z,0.88
2022-10-05T09:18:35.693Z,0.55
2022-10-05T09:21:06.787Z,0.80
2022-10-05T09:23:39.235Z,0.77
2022-10-05T09:26:08.927Z,4.13
2022-10-05T09:28:41.356Z,2.70
2022-10-05T09:31:16.920Z,0.95
2022-10-05T09:34:01.652Z,0.85
2022-10-05T09:36:31.977Z,2.42
2022-10-05T09:39:33.898Z,2.28
2022-10-05T09:42:05.994Z,1.60
2022-10-05T09:44:36.319Z,2.70
2022-10-05T09:47:03.463Z,3.42
2022-10-05T09:49:32.996Z,0.85
2022-10-05T09:52:16.485Z,0.98
2022-10-05T09:55:01.716Z,0.50
2022-10-05T09:57:40.502Z,0.47
2022-10-05T10:00:15.312Z,0.30
2022-10-05T10:03:11.025Z,2.45
2022-10-05T10:05:49.878Z,1.50
2022-10-05T10:08:20.814Z,0.73
2022-10-05T10:10:59.675Z,1.60
2022-10-05T10:13:32.273Z,3.15
2022-10-05T10:16:07.560Z,1.33
2022-10-05T10:18:52.707Z,1.75
2022-10-05T10:21:29.483Z,1.30
2022-10-05T10:24:00.362Z,1.85
2022-10-05T10:26:45.175Z,2.03
2022-10-05T10:29:30.318Z,5.15
2022-10-05T10:32:15.237Z,0.90
2022-10-05T10:34:50.954Z,0.50
2022-10-05T10:37:33.691Z,2.17
2022-10-05T10:40:20.469Z,2.65
2022-10-05T10:42:56.323Z,0.82
2022-10-05T10:45:25.838Z,1.17
2022-10-05T10:47:56.551Z,0.57
2022-10-05T10:50:26.321Z,3.15
2022-10-05T10:52:55.525Z,2.42
2022-10-05T10:55:37.551Z,2.20
2022-10-05T10:58:22.699Z,0.60
2022-10-05T11:00:55.049Z,1.00
2022-10-05T11:03:40.440Z,2.25
2022-10-05T11:06:30.199Z,0.98
2022-10-05T11:08:56.881Z,1.55
2022-10-05T11:11:38.327Z,0.30
2022-10-05T11:14:07.928Z,2.83
2022-10-05T11:16:37.444Z,2.70
2022-10-05T11:19:12.858Z,0.57
2022-10-05T11:21:48.577Z,3.80
2022-10-05T11:24:15.215Z,0.80
2022-10-05T11:27:04.719Z,1.85
2022-10-05T11:29:31.176Z,1.70
2022-10-05T11:32:12.978Z,1.17
2022-10-05T11:34:54.874Z,0.47
2022-10-05T11:37:39.851Z,0.63
2022-10-05T11:40:21.635Z,6.32
2022-10-05T11:42:57.226Z,2.92
2022-10-05T11:45:23.772Z,1.02
2022-10-05T11:48:08.907Z,2.10
2022-10-05T11:50:54.168Z,1.25
2022-10-05T11:53:37.574Z,1.05
2022-10-05T11:56:19.355Z,4.22
2022-10-05T11:58:50.847Z,0.40
2022-10-05T12:01:23.583Z,1.05
2022-10-05T12:03:58.057Z,1.27
2022-10-05T12:06:49.500Z,1.60
2022-10-05T12:09:39.449Z,2.08
2022-10-05T12:12:25.265Z,1.85
2022-10-05T12:15:01.442Z,1.63
2022-10-05T12:17:42.387Z,0.38
2022-10-05T12:20:17.328Z,2.75
2022-10-05T12:22:57.579Z,2.55
2022-10-05T12:25:27.101Z,0.10
2022-10-05T12:27:56.675Z,0.57
2022-10-05T12:30:29.633Z,0.20
2022-10-05T12:33:14.671Z,0.50
2022-10-05T12:35:49.202Z,1.33
2022-10-05T12:38:28.722Z,0.35
2022-10-05T12:41:07.285Z,2.88
2022-10-05T12:43:33.768Z,0.55
2022-10-05T12:46:23.461Z,0.20
2022-10-05T12:49:05.046Z,2.65
2022-10-05T12:51:51.804Z,2.83
2022-10-05T12:54:30.551Z,0.43
2022-10-05T12:57:15.403Z,3.10
2022-10-05T12:59:50.801Z,1.88
2022-10-05T13:02:30.238Z,3.20
2022-10-05T13:05:05.676Z,0.35
2022-10-05T13:07:39.447Z,0.70
2022-10-05T13:10:21.276Z,1.27
2022-10-05T13:12:50.895Z,2.80
2022-10-05T13:15:25.947Z,0.10
2022-10-05T13:18:06.230Z,0.98
2022-10-05T13:20:43.157Z,2.03
2022-10-05T13:23:09.563Z,2.47
2022-10-05T13:25:39.627Z,1.38
2022-10-05T13:28:14.996Z,0.52
2022-10-05T13:30:46.048Z,1.58
2022-10-05T13:33:12.447Z,0.30
2022-10-05T13:35:38.923Z,2.20
2022-10-05T13:38:13.426Z,0.20
2022-10-05T13:40:45.203Z,0.57
2022-10-05T13:43:21.014Z,0.20
2022-10-05T13:45:48.618Z,2.20
2022-10-05T13:48:16.547Z,0.85
2022-10-05T13:51:03.961Z,4.78
2022-10-05T13:53:30.385Z,1.40
2022-10-05T13:56:01.798Z,3.30
2022-10-05T13:58:43.242Z,0.50
2022-10-05T14:01:16.242Z,0.43
2022-10-05T14:04:03.235Z,0.85
2022-10-05T14:06:30.765Z,2.80
2022-10-05T14:09:00.114Z,1.85
2022-10-05T14:11:34.931Z,0.55
2022-10-05T14:14:10.482Z,1.45
2022-10-05T14:16:44.784Z,1.08
2022-10-05T14:19:16.257Z,0.85
2022-10-05T14:21:46.715Z,2.17
2022-10-05T14:24:44.867Z,3.58
2022-10-05T14:27:18.819Z,1.05
2022-10-05T14:29:52.228Z,1.75
2022-10-05T14:32:22.797Z,1.45
2022-10-05T14:34:55.268Z,1.33
2022-10-05T14:37:22.844Z,0.98
2022-10-05T14:39:50.495Z,1.60
2022-10-05T14:42:22.357Z,0.93
2022-10-05T14:44:59.572Z,1.05
2022-10-05T14:47:28.095Z,0.60
2022-10-05T14:50:17.825Z,0.57
2022-10-05T14:52:51.712Z,1.85
2022-10-05T14:55:37.415Z,2.15
2022-10-05T14:58:03.944Z,1.02
2022-10-05T15:00:33.777Z,3.38
2022-10-05T15:03:18.815Z,1.20
2022-10-05T15:05:50.485Z,1.73
2022-10-05T15:08:23.072Z,2.20
2022-10-05T15:10:52.589Z,6.80
2022-10-05T15:13:20.601Z,4.60
2022-10-05T15:15:54.908Z,3.75
2022-10-05T15:18:21.322Z,6.43
2022-10-05T15:20:56.737Z,7.68
2022-10-05T15:23:29.694Z,0.77
2022-10-05T15:26:19.004Z,0.88
2022-10-05T15:28:57.514Z,0.73
2022-10-05T15:31:30.716Z,0.30
2022-10-05T15:34:05.243Z,4.22
2022-10-05T15:36:35.565Z,0.30
2022-10-05T15:39:02.679Z,1.77
2022-10-05T15:41:30.087Z,0.68
2022-10-05T15:44:00.796Z,0.30
2022-10-05T15:46:27.415Z,2.70
2022-10-05T15:49:00.674Z,1.05
2022-10-05T15:51:36.447Z,0.20
2022-10-05T15:54:27.554Z,0.20
2022-10-05T15:57:15.431Z,4.25
2022-10-05T15:59:56.875Z,1.10
2022-10-05T16:02:26.403Z,1.33
2022-10-05T16:05:04.782Z,0.68
2022-10-05T16:07:56.346Z,0.30
2022-10-05T16:10:24.169Z,0.40
2022-10-05T16:12:53.358Z,0.32
2022-10-05T16:15:29.121Z,1.10
2022-10-05T16:18:08.711Z,0.25
2022-10-05T16:20:47.048Z,1.98
2022-10-05T16:23:13.486Z,0.30
2022-10-05T16:25:40.103Z,2.40
2022-10-05T16:28:11.706Z,0.80
2022-10-05T16:30:51.600Z,2.30
2022-10-05T16:33:22.615Z,3.30
2022-10-05T16:35:57.654Z,2.40
2022-10-05T16:38:38.791Z,1.05
2022-10-05T16:41:13.688Z,1.55
2022-10-05T16:43:44.989Z,0.52
2022-10-05T16:46:11.549Z,0.35
2022-10-05T16:48:41.020Z,2.28
2022-10-05T16:51:24.232Z,0.80
2022-10-05T16:53:59.207Z,2.63
2022-10-05T16:56:28.726Z,5.13
2022-10-05T16:58:55.129Z,4.65
2022-10-05T17:01:21.571Z,1.65
2022-10-05T17:04:08.117Z,1.33
2022-10-05T17:06:37.558Z,4.53
2022-10-05T17:09:26.070Z,3.40
2022-10-05T17:12:10.573Z,4.18
2022-10-05T17:14:57.836Z,3.58
2022-10-05T17:17:27.431Z,4.13
2022-10-05T17:20:07.099Z,4.93
2022-10-05T17:22:39.699Z,1.92
2022-10-05T17:25:15.167Z,8.38
2022-10-05T17:27:52.560Z,4.55
2022-10-05T17:30:37.646Z,4.45
2022-10-05T17:33:21.678Z,2.92
2022-10-05T17:36:03.380Z,5.68
2022-10-05T17:38:36.077Z,3.80
2022-10-05T17:41:06.363Z,3.85
2022-10-05T17:43:33.641Z,3.53
2022-10-05T17:46:01.138Z,4.75
2022-10-05T17:48:36.848Z,2.53
2022-10-05T17:51:30.415Z,2.55
2022-10-05T17:54:16.347Z,1.95
2022-10-05T17:56:48.951Z,2.17
2022-10-05T17:59:34.363Z,1.77
2022-10-05T18:02:19.237Z,2.20
2022-10-05T18:05:05.999Z,2.58
2022-10-05T18:07:33.473Z,3.85
2022-10-05T18:10:11.918Z,5.38
2022-10-05T18:12:40.430Z,3.35
2022-10-05T18:15:08.304Z,4.10
2022-10-05T18:17:38.507Z,3.42
2022-10-05T18:20:23.819Z,1.25
2022-10-05T18:22:52.962Z,4.68
2022-10-05T18:25:19.409Z,3.00
2022-10-05T18:28:02.669Z,1.85
2022-10-05T18:30:49.441Z,2.85
2022-10-05T18:33:16.015Z,3.25
2022-10-05T18:35:49.903Z,6.53
2022-10-05T18:38:25.845Z,6.30
2022-10-05T18:41:03.688Z,6.43
2022-10-05T18:43:45.671Z,5.80
2022-10-05T18:46:19.598Z,14.90
2022-10-05T18:48:58.301Z,13.80
2022-10-05T18:51:29.031Z,16.27
2022-10-05T18:54:01.447Z,20.05
2022-10-05T18:56:49.498Z,17.27
2022-10-05T18:59:24.196Z,18.10
2022-10-05T19:01:55.446Z,19.58
2022-10-05T19:04:34.667Z,16.58
2022-10-05T19:07:05.000Z,18.15
2022-10-05T19:09:40.613Z,16.20
2022-10-05T19:12:22.360Z,13.40
2022-10-05T19:14:59.807Z,14.63
2022-10-05T19:17:46.180Z,13.10
2022-10-05T19:20:18.573Z,16.83
2022-10-05T19:23:03.951Z,13.93
2022-10-05T19:25:48.867Z,13.10
2022-10-05T19:28:47.822Z,11.20
2022-10-05T19:31:20.169Z,9.32
2022-10-05T19:34:05.251Z,13.20
2022-10-05T19:36:35.450Z,8.43
2022-10-05T19:39:16.013Z,11.70
2022-10-05T19:42:00.982Z,8.52
2022-10-05T19:44:47.629Z,7.53
2022-10-05T19:47:24.005Z,9.80
2022-10-05T19:49:56.278Z,11.43
2022-10-05T19:52:22.775Z,6.72
2022-10-05T19:55:00.528Z,7.68
2022-10-05T19:57:27.020Z,6.28
2022-10-05T19:59:56.473Z,5.47
2022-10-05T20:02:25.666Z,6.53
2022-10-05T20:04:55.066Z,5.88
2022-10-05T20:07:22.926Z,6.80
2022-10-05T20:09:52.000Z,5.25
2022-10-05T20:12:18.663Z,5.72
2022-10-05T20:15:05.043Z,8.25
2022-10-05T20:17:50.177Z,6.05
2022-10-05T20:20:22.744Z,4.32
2022-10-05T20:22:49.236Z,6.22
2022-10-05T20:25:18.474Z,3.35
2022-10-05T20:27:48.084Z,6.55
2022-10-05T20:30:16.138Z,4.75
2022-10-05T20:32:45.117Z,3.30
2022-10-05T20:35:11.644Z,8.18
2022-10-05T20:37:38.117Z,9.98
2022-10-05T20:40:05.523Z,4.75
2022-10-05T20:42:32.090Z,3.85
2022-10-05T20:44:58.851Z,5.25
2022-10-05T20:47:25.681Z,7.50
2022-10-05T20:49:54.516Z,6.85
2022-10-05T20:52:22.275Z,8.52
2022-10-05T20:54:53.941Z,6.25
2022-10-05T20:57:24.249Z,6.43
2022-10-05T20:59:51.534Z,8.32
2022-10-05T21:02:19.558Z,8.50
2022-10-05T21:04:47.729Z,10.40
2022-10-05T21:07:15.527Z,10.93
2022-10-05T21:09:43.767Z,5.80
2022-10-05T21:12:10.767Z,8.70
2022-10-05T21:14:38.030Z,6.13
2022-10-05T21:17:07.516Z,5.50
2022-10-05T21:19:43.233Z,7.47
2022-10-05T21:22:10.146Z,4.40
2022-10-05T21:24:37.642Z,5.90
2022-10-05T21:27:04.674Z,7.75
2022-10-05T21:29:31.242Z,5.88
2022-10-05T21:31:57.742Z,4.80
2022-10-05T21:34:24.257Z,3.10
2022-10-05T21:36:50.842Z,5.35
2022-10-05T21:39:17.382Z,6.95
2022-10-05T21:41:43.897Z,5.68
2022-10-05T21:44:10.348Z,8.85
2022-10-05T21:46:37.947Z,11.40
2022-10-05T21:49:05.800Z,8.73
2022-10-05T21:51:33.953Z,12.70
2022-10-05T21:54:01.986Z,10.63
2022-10-05T21:56:30.537Z,6.05
2022-10-05T21:58:57.453Z,11.73
2022-10-05T22:01:23.968Z,7.13
2022-10-05T22:03:50.572Z,7.57
2022-10-05T22:06:16.987Z,6.25
2022-10-05T22:08:43.447Z,4.03
2022-10-05T22:11:29.164Z,6.60
2022-10-05T22:14:02.076Z,3.88
2022-10-05T22:16:31.497Z,8.02
2022-10-05T22:18:58.248Z,5.38
2022-10-05T22:21:24.767Z,3.75
2022-10-05T22:23:51.222Z,12.73
2022-10-05T22:26:19.453Z,4.93
2022-10-05T22:28:47.033Z,3.90
2022-10-05T22:31:13.730Z,5.78
2022-10-05T22:33:40.902Z,3.03
2022-10-05T22:36:08.365Z,6.38
2022-10-05T22:38:35.079Z,5.10
2022-10-05T22:41:01.705Z,2.63
2022-10-05T22:43:28.174Z,3.65
2022-10-05T22:45:54.860Z,6.57
2022-10-05T22:48:21.360Z,4.88
2022-10-05T22:50:48.095Z,7.43
2022-10-05T22:53:14.745Z,5.95
2022-10-05T22:55:41.238Z,4.88
2022-10-05T22:58:07.710Z,5.57
2022-10-05T23:00:56.301Z,4.47
2022-10-05T23:03:20.748Z,3.58
2022-10-05T23:05:47.289Z,2.40
2022-10-05T23:08:13.715Z,2.30
2022-10-05T23:10:40.172Z,2.15
2022-10-05T23:13:08.366Z,4.15
2022-10-05T23:15:34.875Z,4.68
2022-10-05T23:18:01.397Z,2.60
2022-10-05T23:20:27.929Z,3.33
2022-10-05T23:22:54.415Z,3.25
2022-10-05T23:25:22.254Z,2.40
2022-10-05T23:27:48.739Z,2.10
2022-10-05T23:30:15.210Z,7.63
2022-10-05T23:32:42.778Z,4.32
2022-10-05T23:35:10.369Z,6.63
2022-10-05T23:37:37.827Z,6.45
2022-10-05T23:40:05.231Z,3.85
2022-10-05T23:42:31.900Z,4.78
2022-10-05T23:44:58.344Z,6.53
2022-10-05T23:47:24.752Z,6.53
2022-10-05T23:49:51.213Z,11.80
2022-10-05T23:52:17.635Z,6.63
2022-10-05T23:54:44.094Z,8.27
2022-10-05T23:57:10.567Z,9.73
2022-10-05T23:59:37.065Z,11.27
